createdAt,value
2022-11-26T00:01:50.269Z,2.4
2022-11-26T00:07:14.158Z,2.4
2022-11-26T00:12:51.880Z,2.5
2022-11-26T00:18:14.382Z,2.6
2022-11-26T00:23:52.073Z,2.6
2022-11-26T00:29:14.232Z,2.4
2022-11-26T00:34:52.301Z,2.2
2022-11-26T00:40:30.324Z,1.8
2022-11-26T00:46:10.378Z,1.4
2022-11-26T00:51:48.111Z,1.1
2022-11-26T00:57:11.415Z,0.9
2022-11-26T01:02:49.240Z,0.7
2022-11-26T01:08:27.485Z,0.6
2022-11-26T01:13:55.315Z,0.7
2022-11-26T01:19:32.826Z,0.9
2022-11-26T01:25:13.715Z,1.6
2022-11-26T01:30:39.487Z,1
2022-11-26T01:36:17.306Z,1.1
2022-11-26T01:41:55.318Z,0.9
2022-11-26T01:47:33.386Z,0.8
2022-11-26T01:53:11.369Z,0.8
2022-11-26T01:58:38.417Z,0.8
2022-11-26T02:04:02.734Z,0.8
2022-11-26T02:09:25.266Z,0.6
2022-11-26T02:15:02.845Z,0.4
2022-11-26T02:20:40.548Z,0.3
2022-11-26T02:26:18.249Z,0.5
2022-11-26T02:31:40.496Z,0.3
2022-11-26T02:37:08.880Z,-0.3
2022-11-26T02:42:30.539Z,-0.4
2022-11-26T02:47:37.182Z,-0.5
2022-11-26T02:53:19.317Z,-0.6
2022-11-26T02:58:57.089Z,-0.6
2022-11-26T03:04:36.201Z,-0.6
2022-11-26T03:15:37.391Z,-0.5
2022-11-26T03:20:59.860Z,-0.2
2022-11-26T03:31:44.523Z,-0.4
2022-11-26T03:37:06.393Z,-0.3
2022-11-26T03:42:44.483Z,-0.2
2022-11-26T03:48:22.720Z,0.3
2022-11-26T03:53:44.666Z,0.6
2022-11-26T03:59:22.901Z,0.7
2022-11-26T04:05:01.496Z,0.5
2022-11-26T04:10:23.816Z,0.5
2022-11-26T04:16:01.500Z,0.6
2022-11-26T04:21:43.910Z,0.6
2022-11-26T04:27:21.526Z,0.5
2022-11-26T04:32:58.961Z,0.4
2022-11-26T04:38:42.182Z,0.4
2022-11-26T04:44:19.649Z,0.4
2022-11-26T04:50:00.879Z,0.4
2022-11-26T04:55:41.773Z,0.4
2022-11-26T05:01:23.533Z,0.3
2022-11-26T05:07:01.666Z,0.1
2022-11-26T05:12:24.101Z,0
2022-11-26T05:17:46.165Z,0.2
2022-11-26T05:23:08.690Z,0
2022-11-26T05:28:31.381Z,0.4
2022-11-26T05:34:09.066Z,0.6
2022-11-26T05:39:32.485Z,0.4
2022-11-26T05:45:16.077Z,0.4
2022-11-26T05:50:22.813Z,0.6
2022-11-26T05:56:00.677Z,0.7
2022-11-26T06:01:42.026Z,0.9
2022-11-26T06:07:20.807Z,1.2
2022-11-26T06:12:47.788Z,1.4
2022-11-26T06:18:10.544Z,1.6
2022-11-26T06:23:32.792Z,1.7
2022-11-26T06:29:21.313Z,1.6
2022-11-26T06:35:07.607Z,1.8
2022-11-26T06:40:30.023Z,1.8
2022-11-26T06:46:08.485Z,1.9
2022-11-26T06:51:51.222Z,1.9
2022-11-26T06:57:29.910Z,1.6
2022-11-26T07:03:07.780Z,1.6
2022-11-26T07:08:49.835Z,1.7
2022-11-26T07:14:31.620Z,1.8
2022-11-26T07:20:10.162Z,2
2022-11-26T07:25:48.487Z,2
2022-11-26T07:31:16.062Z,1.9
2022-11-26T07:36:57.956Z,2.1
2022-11-26T07:42:36.192Z,2.4
2022-11-26T07:48:16.792Z,2.8
2022-11-26T07:53:55.290Z,2.8
2022-11-26T07:59:32.739Z,3.1
2022-11-26T08:05:11.055Z,3.6
2022-11-26T08:10:54.314Z,3.6
2022-11-26T08:16:32.835Z,4.4
2022-11-26T08:22:13.897Z,4.6
2022-11-26T08:28:28.521Z,5
2022-11-26T08:34:06.646Z,5
2022-11-26T08:40:16.642Z,5.4
2022-11-26T08:46:08.297Z,4.9
2022-11-26T08:51:46.755Z,4.8
2022-11-26T08:57:45.205Z,4.7
2022-11-26T09:03:26.211Z,5.6
2022-11-26T09:09:04.360Z,6
2022-11-26T09:14:45.419Z,5.4
2022-11-26T09:20:24.350Z,5.3
2022-11-26T09:25:47.218Z,5.7
2022-11-26T09:31:24.764Z,5.8
2022-11-26T09:37:35.855Z,6.3
2022-11-26T09:43:13.409Z,6
2022-11-26T09:49:00.260Z,6.1
2022-11-26T09:54:41.205Z,6.9
2022-11-26T10:00:23.564Z,7.3
2022-11-26T10:06:01.314Z,7.8
2022-11-26T10:11:39.314Z,8.3
2022-11-26T10:18:00.047Z,8.6
2022-11-26T10:23:49.261Z,8.9
2022-11-26T10:29:27.598Z,9.3
2022-11-26T10:35:11.835Z,8.2
2022-11-26T10:40:54.639Z,9.8
2022-11-26T10:46:33.693Z,8.9
2022-11-26T10:52:33.785Z,9.3
2022-11-26T10:57:56.295Z,10.1
2022-11-26T11:04:09.074Z,9.6
2022-11-26T11:09:48.108Z,10.3
2022-11-26T11:15:31.566Z,10.3
2022-11-26T11:20:54.497Z,10.3
2022-11-26T11:27:08.751Z,10
2022-11-26T11:32:46.503Z,9.6
2022-11-26T11:38:25.216Z,10
2022-11-26T11:44:02.517Z,10.3
2022-11-26T11:49:39.895Z,10.8
2022-11-26T11:55:17.398Z,10.9
2022-11-26T12:00:53.877Z,9.9
2022-11-26T12:06:22.395Z,11.1
2022-11-26T12:12:04.251Z,10.2
2022-11-26T12:17:49.510Z,9.8
2022-11-26T12:23:31.301Z,11.4
2022-11-26T12:29:13.577Z,9.8
2022-11-26T12:34:26.048Z,11.1
2022-11-26T12:40:10.187Z,10.4
2022-11-26T12:45:50.425Z,10.4
2022-11-26T12:51:12.562Z,11.5
2022-11-26T12:56:19.290Z,11.6
2022-11-26T13:02:04.543Z,11.9
2022-11-26T13:08:23.478Z,11.1
2022-11-26T13:14:03.935Z,9.6
2022-11-26T13:19:27.536Z,10.1
2022-11-26T13:24:52.101Z,11.1
2022-11-26T13:30:14.780Z,10.6
2022-11-26T13:35:37.999Z,11
2022-11-26T13:41:00.221Z,10.6
2022-11-26T13:46:39.140Z,11
2022-11-26T13:52:01.665Z,10.6
2022-11-26T13:57:42.499Z,10.1
2022-11-26T14:03:12.400Z,10
2022-11-26T14:08:55.739Z,10.1
2022-11-26T14:14:02.503Z,9.6
2022-11-26T14:19:40.692Z,9.7
2022-11-26T14:25:22.641Z,8.9
2022-11-26T14:31:04.984Z,8.6
2022-11-26T14:36:43.147Z,7.9
2022-11-26T14:42:23.184Z,7.6
2022-11-26T14:48:02.088Z,7.4
2022-11-26T14:53:43.427Z,7.2
2022-11-26T14:59:06.000Z,6.8
2022-11-26T15:04:29.324Z,6.6
2022-11-26T15:10:06.876Z,6.3
2022-11-26T15:15:48.749Z,6.4
2022-11-26T15:21:26.936Z,6.4
2022-11-26T15:27:07.653Z,6.1
2022-11-26T15:32:46.105Z,5.6
2022-11-26T15:38:24.752Z,5.4
2022-11-26T15:44:02.584Z,5.4
2022-11-26T15:49:29.051Z,5.5
2022-11-26T15:55:21.500Z,5.4
2022-11-26T16:01:06.972Z,4.9
2022-11-26T16:06:50.780Z,4.7
2022-11-26T16:12:35.587Z,4.6
2022-11-26T16:17:59.390Z,4.2
2022-11-26T16:23:37.639Z,4.1
2022-11-26T16:29:18.898Z,4.1
2022-11-26T16:35:08.389Z,4.1
2022-11-26T16:41:15.316Z,3.8
2022-11-26T16:46:53.917Z,3.3
2022-11-26T16:52:33.100Z,3.3
2022-11-26T16:58:13.496Z,2.9
2022-11-26T17:03:36.036Z,2.8
2022-11-26T17:09:19.447Z,2.7
2022-11-26T17:14:57.865Z,2.5
2022-11-26T17:20:36.464Z,2.4
2022-11-26T17:26:02.581Z,2.3
2022-11-26T17:37:09.810Z,1.8
2022-11-26T17:42:36.397Z,1.6
2022-11-26T17:48:26.652Z,1.7
2022-11-26T17:53:49.887Z,1.8
2022-11-26T17:59:15.511Z,1.8
2022-11-26T18:04:57.039Z,1.9
2022-11-26T18:10:19.610Z,1.9
2022-11-26T18:21:24.603Z,2
2022-11-26T18:27:01.680Z,2.4
2022-11-26T18:32:29.607Z,2.4
2022-11-26T18:38:08.003Z,2.3
2022-11-26T18:44:04.087Z,2.6
2022-11-26T18:49:47.327Z,2.3
2022-11-26T18:55:10.539Z,2.2
2022-11-26T19:00:49.079Z,2.3
2022-11-26T19:06:31.860Z,2.3
2022-11-26T19:12:09.754Z,2.3
2022-11-26T19:17:47.730Z,2.4
2022-11-26T19:23:29.700Z,2.4
2022-11-26T19:29:11.961Z,2.3
2022-11-26T19:34:50.713Z,2.3
2022-11-26T19:40:29.370Z,2.3
2022-11-26T19:46:13.030Z,2.3
2022-11-26T19:51:51.421Z,2.3
2022-11-26T19:57:35.212Z,2.2
2022-11-26T20:03:14.337Z,2.1
2022-11-26T20:08:43.513Z,2
2022-11-26T20:14:09.921Z,1.9
2022-11-26T20:19:53.670Z,1.7
2022-11-26T20:25:36.612Z,1.8
2022-11-26T20:31:15.544Z,1.7
2022-11-26T20:36:56.084Z,1.4
2022-11-26T20:42:34.802Z,1.4
2022-11-26T20:48:15.483Z,1.1
2022-11-26T20:53:58.268Z,1
2022-11-26T20:59:26.325Z,1.2
2022-11-26T21:04:49.595Z,1
2022-11-26T21:10:14.372Z,0.6
2022-11-26T21:15:58.269Z,0.6
2022-11-26T21:21:27.637Z,0.1
2022-11-26T21:27:05.300Z,-0.1
2022-11-26T21:32:29.221Z,-0.3
2022-11-26T21:38:13.629Z,-0.3
2022-11-26T21:43:51.202Z,-0.2
2022-11-26T21:49:30.257Z,-0.2
2022-11-26T21:54:52.475Z,-0.3
2022-11-26T22:00:30.656Z,-0.3
2022-11-26T22:06:10.195Z,0
2022-11-26T22:11:48.904Z,-0.2
2022-11-26T22:17:11.703Z,0
2022-11-26T22:22:50.032Z,-0.3
2022-11-26T22:27:56.208Z,-0.3
2022-11-26T22:33:35.539Z,-0.4
2022-11-26T22:39:13.642Z,-0.4
2022-11-26T22:44:57.126Z,-0.5
2022-11-26T22:50:35.479Z,-0.7
2022-11-26T22:55:57.717Z,-0.8
2022-11-26T23:01:41.311Z,-0.8
2022-11-26T23:12:44.174Z,-0.8
2022-11-26T23:17:52.015Z,-0.7
2022-11-26T23:22:59.003Z,-0.6
2022-11-26T23:28:11.914Z,-0.6
2022-11-26T23:33:50.294Z,-0.8
2022-11-26T23:39:28.356Z,-0.9
2022-11-26T23:45:10.378Z,-0.8
2022-11-26T23:50:34.353Z,-0.8
2022-11-26T23:56:12.064Z,-0.9
